Terminal Aerodrome Forecast
Issued by NWS Sterling, VA

Home | Current Version | Previous Version | Text Only | Print | Product List | Glossary On
Versions: 1 2 3 4 5 6 7 8 9 10 11 12 13 14 15 16 17
000
FTUS41 KLWX 232335
TAFCHO
TAF
KCHO 232335Z 2400/2424 16013KT P6SM OVC045
     FM240100 16013G31KT 3SM SHRA OVC035
     FM240300 16013G35KT 3SM SHRA OVC020
     FM240600 19008KT P6SM BKN020
     FM240800 20006KT P6SM BKN050
     FM240900 20005KT P6SM SCT060=

USA.gov is the U.S. government's official web portal to all federal, state and local government web resources and services.